Etusivu
METAR-TAF:

METAR-TAF

Lentoasemat :

Greenville, Maine, Yhdysvallat

Leveyspiiri: 45-28N, Pituuspiiri: 069-35W, korkeus merenpinnasta: 427 m

Tämänhetkinen sää

Tämä raportti tehtiin 53 minuuttia sitten, kello 02.56 UTC
Tuuli 9 kn idästä/koillisesta puuskistuen 17 kn:hen
Lämpötila -1°C
Kosteus 86%
Ilmanpaine 983 hPa

METAR: KGNR 100256Z AUTO 07009G17KT M01/M03 A2904 RMK AO1 SLP846 P0005 60015 T10111028 58024 $

Aika: 23:49 (03:49 UTC)


TAF: puuttuu

Säähavainnot ja -ennusteet yli 4000 lentoasemalta (METAR- ja TAF-raportit).

Käytössä olevat sääasemat on merkitty karttaan keltaisilla ja punaisilla pisteillä.

Aseta hiiri pisteen päälle nähdäksesi sääaseman nimen.

Klikkaa sitten nähdäksesi säähavainnot ja -ennusteet.

Kartan vaihtaminen: klikkaa mustalla rastilla varustettuja vihreitä pisteitä, niin voit zoomata sisään; viivalla varustettua vihreää pistettä, niin voit zoomata ulos tai vihreitä nuolia, niin pääset viereisille kartoille.


METAR-TAF: